Latest Weather Observations for Mardie

IDW60801

Issued at 11:34 am WST Wednesday 24 May 2017 (issued every 30 minutes, with the page automatically refreshed every 10 minutes)

About weather observations | Map of weather stations | Latest weather observations for WA | Other Formats
Station Details ID: 005008 Name: MARDIE Lat: -21.19 Lon: 115.98 Height: 11.0 m
Data from the previous 72 hours. | See also: Recent months at Mardie
Date/Time
WST
Temp
°C
App
Temp
°C
Dew
Point
°C
Rel
Hum
%
Delta-T
°C
Wind Press
QNH
hPa
Press
MSL
hPa
Rain since
9am
mm
Dir  Spd
km/h
Gust
km/h
Spd
kts
Gust
kts
24/11:30am 30.3 27.6 10.3 29 11.4 NE 15 24 8 13 1015.6 1015.6 0.0
24/11:00am 29.5 26.6 9.6 29 11.1 NE 15 20 8 11 1016.0 1016.0 0.0
24/10:30am 29.2 26.4 9.9 30 10.9 ENE 15 22 8 12 1016.3 1016.3 0.0
24/10:00am 27.8 24.9 9.6 32 10.1 E 15 20 8 11 1016.5 1016.5 0.0
24/09:30am 27.0 24.0 9.4 33 9.7 ENE 15 22 8 12 1016.5 1016.5 0.0
24/09:00am 25.8 23.8 10.0 37 8.7 E 11 19 6 10 1016.5 1016.5 0.0
24/08:30am 24.0 22.7 11.3 45 7.1 ESE 9 11 5 6 1016.5 1016.5 0.0
24/08:00am 21.9 20.6 11.3 51 5.9 ESE 9 13 5 7 1016.2 1016.2 0.0
24/07:30am 19.7 18.2 12.0 61 4.3 ESE 11 13 6 7 1015.8 1015.8 0.0
24/07:00am 17.8 16.9 12.5 71 2.9 E 9 11 5 6 1015.6 1015.6 0.0
24/06:30am 16.6 16.3 12.6 77 2.2 ESE 6 9 3 5 1015.4 1015.4 0.0
24/06:00am 16.1 15.7 12.5 79 2.0 ESE 6 6 3 3 1015.0 1015.0 0.0
24/05:30am 15.9 15.4 12.1 78 2.1 ESE 6 6 3 3 1014.8 1014.8 0.0
24/05:00am 15.9 15.4 12.6 81 1.8 E 7 9 4 5 1014.6 1014.6 0.0
24/04:30am 15.8 15.3 12.5 81 1.8 E 7 9 4 5 1014.5 1014.5 0.0
24/04:00am 16.1 15.2 12.5 79 2.0 ESE 9 9 5 5 1014.6 1014.6 0.0
24/03:30am 16.6 16.3 12.6 77 2.2 ESE 6 7 3 4 1014.5 1014.5 0.0
24/03:00am 16.4 15.8 12.4 77 2.2 ESE 7 9 4 5 1014.6 1014.6 0.0
24/02:30am 16.5 15.9 12.3 76 2.3 ESE 7 7 4 4 1014.8 1014.8 0.0
24/02:00am 16.7 16.2 12.0 74 2.6 E 6 7 3 4 1015.1 1015.1 0.0
24/01:30am 17.0 16.9 12.1 73 2.7 ESE 4 6 2 3 1015.3 1015.3 0.0
24/01:00am 17.4 17.4 12.3 72 2.8 E 4 6 2 3 1015.6 1015.6 0.0
24/12:30am 17.7 16.7 12.4 71 2.9 SE 9 9 5 5 1015.8 1015.8 0.0
24/12:00am 17.9 17.3 12.4 70 3.0 SE 7 9 4 5 1015.8 1015.8 0.0
 
Date/Time
WST
Temp
°C
App
Temp
°C
Dew
Point
°C
Rel
Hum
%
Delta-T
°C
Wind Press
QNH
hPa
Press
MSL
hPa
Rain since
9am
mm
Dir  Spd
km/h
Gust
km/h
Spd
kts
Gust
kts
23/11:30pm 18.7 18.0 13.1 70 3.2 S 9 13 5 7 1016.1 1016.1 0.0
23/11:00pm 18.1 17.6 12.8 71 3.0 SSE 7 9 4 5 1016.2 1016.2 0.0
23/10:30pm 18.4 17.9 12.8 70 3.1 SSE 7 7 4 4 1016.2 1016.2 0.0
23/10:00pm 18.6 18.1 12.6 68 3.3 SSE 7 7 4 4 1016.1 1016.1 0.0
23/09:30pm 18.9 18.1 12.9 68 3.4 S 9 11 5 6 1016.1 1016.1 0.0
23/09:00pm 19.5 18.9 12.3 63 4.0 S 7 9 4 5 1015.8 1015.8 0.0
23/08:30pm 20.6 20.6 12.3 59 4.7 SW 4 6 2 3 1015.6 1015.6 0.0
23/08:00pm 21.1 21.2 13.8 63 4.2 WSW 6 9 3 5 1015.3 1015.3 0.0
23/07:30pm 21.4 21.4 13.6 61 4.5 SW 6 7 3 4 1015.0 1015.0 0.0
23/07:00pm 21.9 22.3 13.8 60 4.7 WNW 4 4 2 2 1014.7 1014.7 0.0
23/06:30pm 23.4 23.5 13.8 54 5.6 NNW 6 7 3 4 1014.5 1014.5 0.0
23/06:00pm 24.6 24.5 13.2 49 6.6 W 6 6 3 3 1014.3 1014.3 0.0
23/05:30pm 26.1 25.4 13.2 44 7.5 N 9 13 5 7 1013.8 1013.8 0.0
23/05:00pm 27.5 26.5 12.3 39 8.8 NNW 9 15 5 8 1013.6 1013.6 0.0
23/04:30pm 28.3 26.8 11.8 36 9.5 N 11 20 6 11 1013.3 1013.3 0.0
23/04:00pm 29.4 28.2 11.5 33 10.3 N 9 19 5 10 1013.2 1013.2 0.0
23/03:30pm 29.7 27.2 11.2 31 10.6 N 15 20 8 11 1013.3 1013.3 0.0
23/03:00pm 30.0 27.6 10.0 29 11.3 NNW 13 20 7 11 1013.1 1013.1 0.0
23/02:30pm 30.2 27.8 10.2 29 11.4 N 13 19 7 10 1013.3 1013.3 0.0
23/02:00pm 30.8 28.1 9.1 26 12.1 N 13 19 7 10 1013.5 1013.5 0.0
23/01:30pm 31.1 28.9 9.3 26 12.2 N 11 20 6 11 1013.8 1013.8 0.0
23/01:00pm 31.8 28.1 4.6 18 14.2 NNE 13 20 7 11 1014.4 1014.4 0.0
23/12:30pm 30.7 27.1 5.2 20 13.4 ENE 13 28 7 15 1014.8 1014.8 0.0
23/12:00pm 30.6 26.8 5.8 21 13.1 ENE 15 24 8 13 1015.3 1015.3 0.0
23/11:30am 31.0 27.4 6.8 22 13.0 E 15 26 8 14 1015.6 1015.6 0.0
23/11:00am 29.4 26.0 6.1 23 12.3 ENE 13 22 7 12 1016.1 1016.1 0.0
23/10:30am 28.7 25.3 6.1 24 11.9 E 13 20 7 11 1016.6 1016.6 0.0
23/10:00am 27.9 24.5 6.1 25 11.4 ESE 13 20 7 11 1017.2 1017.1 0.0
23/09:30am 26.6 21.9 6.1 27 10.7 ESE 20 24 11 13 1017.4 1017.3 0.0
23/09:00am 25.1 20.9 5.8 29 9.9 ESE 17 24 9 13 1017.4 1017.3 -
23/07:00am 12.4 10.4 6.2 66 2.9 SSE 6 7 3 4 1015.8 1015.8 -
23/06:30am 11.9 9.6 5.8 66 2.8 S 7 9 4 5 1015.6 1015.6 -
23/06:00am 12.0 9.4 5.9 66 2.9 SSW 9 9 5 5 1015.1 1015.1 -
23/05:00am 12.7 10.6 5.8 63 3.2 SSW 6 9 3 5 1015.0 1015.0 -
23/04:30am 12.4 9.8 6.0 65 3.0 SSW 9 11 5 6 1014.9 1014.9 -
23/04:00am 12.3 10.0 5.7 64 3.1 SSW 7 9 4 5 1015.0 1015.0 -
23/03:30am 12.7 10.5 6.1 64 3.1 S 7 9 4 5 1014.9 1014.9 -
23/03:00am 12.9 10.7 6.0 63 3.3 S 7 7 4 4 1015.0 1015.0 0.0
23/02:30am 13.4 11.2 6.0 61 3.5 SSW 7 9 4 5 1015.1 1015.1 -
23/02:00am 13.8 11.6 6.2 60 3.6 SSW 7 9 4 5 1015.4 1015.4 -
23/01:30am 14.1 11.5 6.2 59 3.8 SSW 9 11 5 6 1015.4 1015.4 -
23/01:00am 14.2 11.6 6.3 59 3.8 SW 9 11 5 6 1015.6 1015.6 -
23/12:30am 14.9 12.8 6.7 58 4.0 SSW 7 9 4 5 1015.7 1015.7 -
23/12:00am 15.5 13.5 7.3 58 4.1 SW 7 7 4 4 1015.8 1015.8 -
 
Date/Time
WST
Temp
°C
App
Temp
°C
Dew
Point
°C
Rel
Hum
%
Delta-T
°C
Wind Press
QNH
hPa
Press
MSL
hPa
Rain since
9am
mm
Dir  Spd
km/h
Gust
km/h
Spd
kts
Gust
kts
22/11:30pm 16.2 14.5 8.2 59 4.1 SW 7 9 4 5 1016.0 1016.0 -
22/11:00pm 16.5 14.4 9.7 64 3.5 SW 11 13 6 7 1016.1 1016.1 -
22/10:30pm 17.2 16.2 11.0 67 3.3 SSW 7 9 4 5 1016.2 1016.2 -
22/10:00pm 18.9 18.0 12.6 67 3.5 SW 9 11 5 6 1016.1 1016.1 -
22/09:30pm 19.8 19.8 14.2 70 3.2 WSW 7 11 4 6 1016.0 1016.0 -
22/09:00pm 21.0 20.2 15.1 69 3.5 WSW 13 17 7 9 1015.7 1015.7 0.0
22/08:30pm 21.3 20.2 15.2 68 3.6 WSW 15 20 8 11 1015.6 1015.6 -
22/08:00pm 21.5 20.2 14.9 66 3.9 WSW 15 19 8 10 1015.2 1015.2 -
22/07:30pm 21.7 20.6 14.4 63 4.3 W 13 19 7 10 1014.9 1014.9 -
22/07:00pm 22.4 21.1 14.8 62 4.5 W 15 22 8 12 1014.4 1014.4 -
22/06:30pm 22.9 21.3 15.0 61 4.7 W 17 24 9 13 1014.1 1014.1 -
22/06:00pm 23.4 21.8 13.8 54 5.6 W 15 20 8 11 1013.9 1013.9 -
22/05:30pm 24.5 21.9 13.1 49 6.6 W 19 24 10 13 1013.6 1013.6 -
22/05:00pm 26.1 23.1 11.8 41 8.2 W 19 28 10 15 1013.4 1013.4 -
22/04:30pm 27.7 26.0 10.0 33 9.9 W 9 19 5 10 1013.1 1013.1 -
22/04:00pm 29.4 25.3 0.1 15 14.0 SE 11 19 6 10 1013.1 1013.1 -
22/03:30pm 29.2 26.2 0.8 16 13.7 SSW 6 13 3 7 1013.1 1013.1 -
22/03:00pm 29.3 25.9 1.7 17 13.5 SSW 9 17 5 9 1013.2 1013.2 -
22/02:30pm 29.1 24.4 0.7 16 13.6 S 15 22 8 12 1013.5 1013.5 -
22/02:00pm 28.4 24.6 1.8 18 13.0 S 11 26 6 14 1013.7 1013.7 -
22/01:30pm 28.3 24.9 1.7 18 12.9 SSE 9 19 5 10 1014.1 1014.1 -
22/01:00pm 28.8 25.2 2.9 19 12.9 SSE 11 26 6 14 1014.6 1014.6 -
22/12:30pm 27.8 24.4 4.2 22 11.9 SSE 11 22 6 12 1015.1 1015.1 -
22/12:00pm 27.3 23.6 4.4 23 11.6 S 13 20 7 11 1015.6 1015.6 -
22/11:30am 26.5 22.8 4.3 24 11.2 SSE 13 22 7 12 1016.2 1016.2 -
22/11:00am 26.1 - 4.6 25 10.8 - - - - - 1016.6 1016.6 -
22/10:30am 25.8 21.5 5.4 27 10.4 SSE 17 26 9 14 1016.8 1016.8 0.0
22/10:00am 25.5 21.4 6.2 29 10.0 SSE 17 24 9 13 1017.1 1017.0 0.0
22/09:30am 24.3 19.8 7.0 33 9.0 SSE 20 26 11 14 1017.2 1017.1 0.0
22/09:00am 23.5 19.3 7.6 36 8.3 SSE 19 24 10 13 1017.2 1017.1 0.0
22/08:30am 20.6 17.0 8.3 45 6.4 SSE 17 20 9 11 1017.0 1016.9 0.0
22/08:00am 18.7 15.5 8.4 51 5.3 SSE 15 20 8 11 1016.6 1016.6 0.0
22/07:30am 15.8 13.3 8.1 60 3.9 S 11 15 6 8 1016.4 1016.4 0.0
22/07:00am 13.2 11.0 7.9 70 2.6 S 9 11 5 6 1016.0 1016.0 0.0
22/06:30am 13.1 10.5 7.8 70 2.6 SSW 11 13 6 7 1015.6 1015.6 0.0
22/06:00am 12.8 10.9 7.5 70 2.6 SSW 7 9 4 5 1015.3 1015.3 0.0
22/05:30am 13.0 10.8 7.7 70 2.6 SSW 9 11 5 6 1015.0 1015.0 0.0
22/05:00am 13.7 11.5 7.7 67 3.0 S 9 11 5 6 1014.7 1014.7 0.0
22/04:30am 14.4 11.8 7.9 65 3.2 SSW 11 17 6 9 1014.5 1014.5 0.0
22/04:00am 13.8 12.2 7.8 67 3.0 SSW 6 6 3 3 1014.3 1014.3 0.0
22/03:30am 14.6 12.5 8.1 65 3.2 SSW 9 11 5 6 1014.1 1014.1 0.0
22/03:00am 15.8 13.3 8.1 60 3.9 SSW 11 13 6 7 1013.9 1013.9 0.0
22/02:30am 16.9 14.0 8.3 57 4.4 SSW 13 17 7 9 1013.7 1013.7 0.0
22/02:00am 15.9 13.5 8.6 62 3.7 SW 11 13 6 7 1013.8 1013.8 0.0
22/01:30am 16.2 13.4 8.4 60 4.0 SSW 13 17 7 9 1013.8 1013.8 0.0
22/01:00am 17.7 14.9 8.6 55 4.7 S 13 17 7 9 1013.4 1013.4 0.0
22/12:30am 16.1 14.5 8.8 62 3.7 S 7 9 4 5 1013.6 1013.6 0.0
22/12:00am 16.6 15.1 9.1 61 3.9 S 7 9 4 5 1013.6 1013.6 0.0
 
Date/Time
WST
Temp
°C
App
Temp
°C
Dew
Point
°C
Rel
Hum
%
Delta-T
°C
Wind Press
QNH
hPa
Press
MSL
hPa
Rain since
9am
mm
Dir  Spd
km/h
Gust
km/h
Spd
kts
Gust
kts
21/11:30pm 17.3 15.4 9.2 59 4.2 S 9 11 5 6 1013.6 1013.6 0.0
21/11:00pm 17.8 16.1 9.9 60 4.2 SSW 9 11 5 6 1013.6 1013.6 0.0
21/10:30pm 18.8 16.9 10.6 59 4.4 SSW 11 11 6 6 1013.7 1013.7 0.0
21/10:00pm 19.7 18.4 11.2 58 4.7 SW 9 11 5 6 1013.5 1013.5 0.0
21/09:30pm 20.9 19.5 12.3 58 4.8 SW 11 13 6 7 1013.4 1013.4 0.0
21/09:00pm 21.7 21.1 13.6 60 4.7 SW 9 11 5 6 1013.4 1013.4 0.0
21/08:30pm 22.5 22.4 14.9 62 4.5 WSW 9 13 5 7 1013.3 1013.3 0.0
21/08:00pm 22.8 22.5 14.4 59 4.9 WSW 9 13 5 7 1013.0 1013.0 0.0
21/07:30pm 23.0 22.4 13.5 55 5.5 WSW 9 11 5 6 1012.5 1012.5 0.0
21/07:00pm 23.6 23.5 15.9 62 4.7 WSW 11 13 6 7 1012.1 1012.1 0.0
21/06:30pm 24.4 23.7 16.4 61 4.9 W 15 20 8 11 1011.8 1011.8 0.0
21/06:00pm 25.0 23.4 15.0 53 6.0 W 17 24 9 13 1011.6 1011.6 0.0
21/05:30pm 26.5 24.2 12.9 43 7.9 W 17 24 9 13 1011.1 1011.1 0.0
21/05:00pm 28.2 25.7 10.9 34 9.8 WSW 15 20 8 11 1010.8 1010.8 0.0
21/04:30pm 29.0 26.0 9.2 29 11.0 SW 15 24 8 13 1010.7 1010.7 0.0
21/04:00pm 29.4 25.6 9.0 28 11.3 SW 19 28 10 15 1010.3 1010.3 0.0
21/03:30pm 29.4 26.2 8.5 27 11.5 SW 15 28 8 15 1010.1 1010.1 0.0
21/03:00pm 30.0 26.2 9.0 27 11.7 SW 19 30 10 16 1009.9 1009.9 0.0
21/02:30pm 30.1 27.4 9.1 27 11.7 SSW 13 28 7 15 1009.9 1009.9 0.0
21/02:00pm 29.5 25.6 8.5 27 11.6 SSW 19 30 10 16 1010.0 1010.0 0.0
21/01:30pm 29.3 25.7 8.4 27 11.5 SSW 17 28 9 15 1010.3 1010.3 0.0
21/01:00pm 29.1 26.0 8.7 28 11.2 SSW 15 26 8 14 1010.7 1010.7 0.0
21/12:30pm 28.9 25.7 8.6 28 11.2 SSW 15 26 8 14 1011.1 1011.1 0.0
21/12:00pm 28.4 24.3 8.7 29 10.8 SSW 20 30 11 16 1011.6 1011.6 0.0

Other Formats:

Comma delimited format used in spreadsheet applications
http://www.bom.gov.au/fwo/IDW60801/IDW60801.94306.axf

JavaScript Object Notation format (JSON) in row-major order
http://www.bom.gov.au/fwo/IDW60801/IDW60801.94306.json